Time;durP1;ratioP1;P1;durP2;ratioP2;P2;SDS_P1;SDS_P2;PMS_P1;PMS_P2;Temp;Humidity;BMP_temperature;BMP_pressure;BME280_temperature;BME280_humidity;BME280_pressure;Samples;Min_cycle;Max_cycle;Signal;HPM_P1;HPM_P2
2021/11/08 00:01:19;;;;;;;4.10;1.60;;;;;;;7.25;98.93;100221.19;5297287;54;1135029;-80
2021/11/08 00:06:25;;;;;;;10.53;2.42;;;;;;;7.25;98.86;100215.08;5310939;54;1134521;-77
2021/11/08 00:11:33;;;;;;;7.93;2.87;;;;;;;7.26;99.07;100222.87;5304393;55;1136878;-75
2021/11/08 00:16:53;;;;;;;8.60;2.43;;;;;;;7.26;98.92;100220.23;5291114;55;1134825;-79
2021/11/08 00:21:53;;;;;;;13.50;2.27;;;;;;;7.24;99.30;100232.65;5314738;55;1134806;-81
2021/11/08 00:27:01;;;;;;;4.07;1.73;;;;;;;7.21;99.38;100236.80;5284963;55;1136954;-82
2021/11/08 00:32:08;;;;;;;12.97;2.60;;;;;;;7.21;99.65;100234.16;5284285;55;1134826;-82
2021/11/08 00:37:14;;;;;;;16.53;4.17;;;;;;;7.21;99.46;100239.90;5278143;55;1136941;-80
2021/11/08 00:42:20;;;;;;;4.40;1.60;;;;;;;7.21;99.27;100238.58;5293185;55;1136960;-80
2021/11/08 00:47:27;;;;;;;10.80;2.70;;;;;;;7.21;99.17;100245.16;5278450;55;1134805;-80
2021/11/08 00:52:33;;;;;;;8.70;2.10;;;;;;;7.21;99.01;100241.22;5273695;55;1135338;-77
2021/11/08 00:57:40;;;;;;;11.23;2.67;;;;;;;7.21;98.84;100253.05;5267411;55;1132790;-77
2021/11/08 01:02:46;;;;;;;8.50;2.30;;;;;;;7.20;98.90;100257.94;5257442;55;1138878;-82
2021/11/08 01:07:53;;;;;;;17.53;3.50;;;;;;;7.17;98.84;100252.91;5269127;55;1137070;-76
2021/11/08 01:12:59;;;;;;;8.77;2.40;;;;;;;7.16;98.74;100269.16;5284436;55;1138861;-78
2021/11/08 01:18:05;;;;;;;8.10;2.03;;;;;;;7.15;98.96;100268.79;5270711;55;1136988;-77
2021/11/08 01:23:12;;;;;;;8.40;2.03;;;;;;;7.13;98.98;100281.67;5256957;55;1136927;-83
2021/11/08 01:28:18;;;;;;;7.07;1.80;;;;;;;7.05;100.00;100279.53;5265162;55;1136785;-81
2021/11/08 01:33:24;;;;;;;12.73;3.67;;;;;;;6.95;100.00;100279.79;5267191;55;1138984;-78
2021/11/08 01:38:38;;;;;;;7.13;2.17;;;;;;;6.87;100.00;100283.41;5273136;55;1141265;-75
2021/11/08 01:43:38;;;;;;;10.93;2.23;;;;;;;6.83;100.00;100285.86;5263496;55;1139031;-78
2021/11/08 01:48:44;;;;;;;10.53;3.73;;;;;;;6.83;100.00;100281.92;5258356;55;1141009;-83
2021/11/08 01:53:50;;;;;;;6.70;1.57;;;;;;;6.79;100.00;100281.27;5256400;55;1141071;-79
2021/11/08 01:58:57;;;;;;;7.13;1.77;;;;;;;6.80;100.00;100290.00;5272950;55;1138504;-81
2021/11/08 02:04:03;;;;;;;4.60;1.97;;;;;;;6.80;100.00;100280.80;5278421;55;1139061;-74
2021/11/08 02:09:08;;;;;;;12.17;3.60;;;;;;;6.80;100.00;100282.11;5260794;55;1139000;-85
2021/11/08 02:14:15;;;;;;;9.70;2.07;;;;;;;6.82;100.00;100286.33;5262248;55;1141085;-74
2021/11/08 02:19:21;;;;;;;13.03;2.27;;;;;;;6.83;100.00;100286.70;5255737;55;1139004;-78
2021/11/08 02:24:28;;;;;;;9.20;2.40;;;;;;;6.83;100.00;100291.97;5273062;55;1141032;-77
2021/11/08 02:29:34;;;;;;;6.80;2.20;;;;;;;6.83;100.00;100294.59;5256063;55;1138942;-78
2021/11/08 02:34:40;;;;;;;12.30;2.37;;;;;;;6.83;100.00;100303.80;5269764;55;1138940;-79
2021/11/08 02:39:49;;;;;;;9.47;2.33;;;;;;;6.85;100.00;100311.58;5274369;55;1141290;-79
2021/11/08 02:44:54;;;;;;;12.93;3.03;;;;;;;6.86;100.00;100307.55;5262165;55;1138971;-78
2021/11/08 02:50:02;;;;;;;18.80;3.43;;;;;;;6.90;100.00;100316.05;5267093;55;1141065;-79
2021/11/08 02:55:08;;;;;;;19.83;3.33;;;;;;;6.91;100.00;100322.99;5279659;55;1141324;-81
2021/11/08 03:00:14;;;;;;;9.97;2.50;;;;;;;6.87;100.00;100321.53;5259918;55;1141278;-79
2021/11/08 03:05:31;;;;;;;7.80;2.67;;;;;;;6.84;100.00;100327.83;5299624;55;1138954;-79
2021/11/08 03:10:31;;;;;;;6.72;1.85;;;;;;;6.85;100.00;100338.72;5273556;55;1138949;-79
2021/11/08 03:20:42;;;;;;;10.98;1.98;;;;;;;6.75;100.00;100348.11;5277294;55;1141041;-79
2021/11/08 03:31:10;;;;;;;6.93;1.70;;;;;;;6.67;100.00;100351.25;5092389;57;1141167;-82
2021/11/08 03:36:17;;;;;;;13.00;2.93;;;;;;;6.65;100.00;100354.91;5092116;57;1138875;-80
2021/11/08 03:41:22;;;;;;;9.00;3.20;;;;;;;6.61;100.00;100361.30;5096617;57;1141143;-80
2021/11/08 03:46:29;;;;;;;7.17;1.93;;;;;;;6.62;100.00;100369.09;5079454;57;1139065;-79
2021/11/08 03:51:35;;;;;;;4.20;1.60;;;;;;;6.62;100.00;100376.97;5105052;57;1139133;-78
2021/11/08 03:56:41;;;;;;;2.80;1.70;;;;;;;6.63;100.00;100381.28;5079860;57;1137011;-79
2021/11/08 04:01:47;;;;;;;8.23;1.73;;;;;;;6.63;100.00;100382.60;5074043;57;1137143;-75
2021/11/08 04:06:52;;;;;;;13.35;2.40;;;;;;;6.66;100.00;100382.87;5193411;55;1137162;-77
2021/11/08 04:12:00;;;;;;;5.60;1.70;;;;;;;6.66;100.00;100388.98;5202408;55;1138969;-77
2021/11/08 04:17:08;;;;;;;5.63;1.90;;;;;;;6.68;100.00;100400.24;5150467;55;1136901;-78
2021/11/08 04:22:15;;;;;;;6.83;1.97;;;;;;;6.67;100.00;100406.44;5194614;56;1136841;-80
2021/11/08 04:27:21;;;;;;;5.87;2.00;;;;;;;6.68;100.00;100404.66;5240100;56;1137114;-81
2021/11/08 04:32:31;;;;;;;8.00;2.03;;;;;;;6.67;100.00;100410.37;5231495;56;1136911;-75
2021/11/08 04:37:58;;;;;;;8.43;2.10;;;;;;;6.65;100.00;100413.57;5228951;56;1137014;-77
2021/11/08 04:43:34;;;;;;;11.57;2.50;;;;;;;6.67;100.00;100413.01;5130156;57;1136942;-81
2021/11/08 05:30:47;;;;;;;5.63;1.50;;;;;;;6.72;100.00;100460.50;5014143;57;1141052;-79
2021/11/08 05:35:53;;;;;;;8.53;2.07;;;;;;;6.70;100.00;100457.50;5199386;55;1139047;-80
2021/11/08 05:40:59;;;;;;;2.10;1.73;;;;;;;6.72;100.00;100471.86;5210700;55;1138975;-89
2021/11/08 05:46:05;;;;;;;6.17;2.53;;;;;;;6.74;100.00;100476.52;5244100;55;1139462;-87
2021/11/08 05:51:11;;;;;;;5.80;2.27;;;;;;;6.74;100.00;100477.00;5258090;56;1139194;-86
2021/11/08 05:56:28;;;;;;;3.03;1.60;;;;;;;6.76;100.00;100484.31;5298353;55;1138857;-90
2021/11/08 06:49:58;;;;;;;6.47;2.23;;;;;;;6.90;100.00;100544.30;5251135;55;976475;-84
2021/11/08 06:55:06;;;;;;;12.77;2.10;;;;;;;6.92;100.00;100557.34;5346305;54;1136238;-85
2021/11/08 07:00:14;;;;;;;8.30;2.07;;;;;;;6.92;100.00;100577.91;5328379;54;1141125;-86
2021/11/08 07:05:20;;;;;;;7.87;2.30;;;;;;;6.94;100.00;100583.08;5332171;54;1138920;-86
2021/11/08 07:10:25;;;;;;;8.53;2.43;;;;;;;6.96;100.00;100582.52;5372506;54;1139167;-83
2021/11/08 07:15:32;;;;;;;7.03;2.10;;;;;;;6.98;100.00;100597.27;5386580;54;1138888;-84
2021/11/08 07:20:37;;;;;;;13.37;3.70;;;;;;;7.02;100.00;100600.56;5419366;54;1139029;-83
2021/11/08 07:25:43;;;;;;;9.77;2.77;;;;;;;7.05;100.00;100604.30;5421544;54;1141241;-84
2021/11/08 07:30:49;;;;;;;5.13;2.77;;;;;;;7.11;100.00;100613.60;5367215;54;1138969;-85
2021/11/08 07:35:54;;;;;;;4.37;2.30;;;;;;;7.13;100.00;100619.61;5340532;54;1138927;-84
2021/11/08 07:41:01;;;;;;;4.30;2.17;;;;;;;7.16;100.00;100638.69;5347627;54;1138892;-85
2021/11/08 07:46:08;;;;;;;2.13;1.70;;;;;;;7.20;100.00;100644.11;5344959;54;1138919;-84
2021/11/08 07:51:18;;;;;;;5.17;1.90;;;;;;;7.22;100.00;100650.59;5327438;54;1139056;-85
2021/11/08 07:56:24;;;;;;;3.60;2.63;;;;;;;7.27;100.00;100652.48;5340541;54;1139147;-83
2021/11/08 08:01:30;;;;;;;5.90;2.60;;;;;;;7.32;100.00;100656.53;5328556;54;1138999;-85
2021/11/08 08:06:36;;;;;;;5.73;3.07;;;;;;;7.35;100.00;100665.53;5341994;54;1139125;-83
2021/11/08 08:11:42;;;;;;;8.10;2.70;;;;;;;7.39;100.00;100672.30;5373672;54;1139069;-83
2021/11/08 08:16:49;;;;;;;8.80;3.43;;;;;;;7.40;100.00;100679.26;5393249;54;1139089;-83
2021/11/08 08:21:55;;;;;;;4.90;2.67;;;;;;;7.44;100.00;100689.59;5414545;54;1138994;-85
2021/11/08 08:27:04;;;;;;;4.27;3.23;;;;;;;7.47;100.00;100692.05;5407410;54;1138972;-86
2021/11/08 08:32:10;;;;;;;3.13;2.87;;;;;;;7.50;100.00;100695.31;5345188;54;1138839;-87
2021/11/08 08:37:17;;;;;;;3.93;2.60;;;;;;;7.57;100.00;100695.32;5335797;54;1139029;-86
2021/11/08 08:42:24;;;;;;;6.10;2.97;;;;;;;7.61;100.00;100709.98;5347350;54;1138881;-87
2021/11/08 08:47:30;;;;;;;5.55;2.75;;;;;;;7.65;100.00;100719.83;5346774;55;1138992;-89
2021/11/08 08:52:35;;;;;;;8.93;2.93;;;;;;;7.68;100.00;100719.17;5338663;54;1138963;-89
2021/11/08 08:57:42;;;;;;;5.23;2.50;;;;;;;7.72;100.00;100729.05;5368029;54;1136780;-90
2021/11/08 09:02:55;;;;;;;7.40;3.23;;;;;;;7.80;100.00;100733.35;5442458;54;1136843;-89
2021/11/08 09:08:02;;;;;;;4.70;2.67;;;;;;;7.89;100.00;100740.70;5417248;54;1136852;-89
2021/11/08 09:13:09;;;;;;;5.37;2.47;;;;;;;7.98;100.00;100746.69;5405162;54;1136837;-89
2021/11/08 09:18:16;;;;;;;6.60;2.60;;;;;;;8.05;100.00;100758.55;5340439;54;1136939;-85
2021/11/08 09:23:21;;;;;;;2.97;2.50;;;;;;;8.11;100.00;100761.23;5294288;54;1136901;-86
2021/11/08 09:28:28;;;;;;;3.13;2.00;;;;;;;8.11;100.00;100758.60;5337553;54;1137127;-85
2021/11/08 09:33:35;;;;;;;10.17;3.20;;;;;;;8.13;100.00;100764.16;5330718;54;1137047;-85
2021/11/08 09:38:49;;;;;;;3.60;2.47;;;;;;;8.15;100.00;100772.44;5311163;54;1139054;-84
2021/11/08 09:43:54;;;;;;;5.57;2.07;;;;;;;8.26;100.00;100763.36;5297702;54;1136792;-85
2021/11/08 09:49:03;;;;;;;4.57;2.00;;;;;;;8.26;100.00;100763.36;5330971;54;1136929;-84
2021/11/08 09:54:10;;;;;;;4.17;2.20;;;;;;;8.35;100.00;100763.67;5307899;54;1136851;-83
2021/11/08 09:59:17;;;;;;;5.53;2.93;;;;;;;8.54;100.00;100779.16;5272203;54;1137144;-84
2021/11/08 10:04:24;;;;;;;3.10;2.43;;;;;;;8.76;100.00;100781.21;5289965;54;1134844;-85
2021/11/08 10:09:30;;;;;;;1.97;1.53;;;;;;;8.96;100.00;100789.98;5309055;54;1134756;-86
2021/11/08 10:14:39;;;;;;;2.23;1.43;;;;;;;9.06;100.00;100790.20;5330161;54;1138953;-85
2021/11/08 10:19:44;;;;;;;12.20;3.02;;;;;;;9.17;100.00;100788.52;5328694;54;1138880;-85
2021/11/08 10:25:00;;;;;;;3.50;1.80;;;;;;;9.32;100.00;100795.06;5289727;54;1140947;-87
2021/11/08 10:30:06;;;;;;;2.47;1.02;;;;;;;9.41;100.00;100797.06;5310664;54;1138802;-88
2021/11/08 10:35:12;;;;;;;5.05;1.80;;;;;;;9.44;100.00;100796.39;5328708;54;1138919;-89
2021/11/08 10:40:21;;;;;;;2.33;1.10;;;;;;;9.46;100.00;100793.17;5343172;54;1138874;-87
2021/11/08 10:45:26;;;;;;;2.72;1.17;;;;;;;9.44;100.00;100790.26;5353873;54;1138897;-88
2021/11/08 10:50:44;;;;;;;4.03;1.33;;;;;;;9.44;100.00;100805.63;5373896;54;1138862;-86
2021/11/08 10:55:56;;;;;;;2.13;1.10;;;;;;;9.45;99.16;100809.95;5273965;54;1139225;-88
2021/11/08 11:01:03;;;;;;;1.60;1.00;;;;;;;9.52;99.74;100811.21;5318177;54;1137041;-83
2021/11/08 11:06:10;;;;;;;3.60;0.90;;;;;;;9.61;98.39;100813.72;5336801;54;1136975;-82
2021/11/08 11:11:24;;;;;;;2.97;0.83;;;;;;;9.64;97.87;100820.55;5384095;54;1136908;-85
2021/11/08 11:16:41;;;;;;;5.07;1.40;;;;;;;9.68;97.67;100820.72;5302522;54;1136804;-86
2021/11/08 11:22:03;;;;;;;0.80;0.80;;;;;;;9.63;97.95;100821.03;5330246;54;1136976;-83
2021/11/08 11:27:14;;;;;;;1.13;1.03;;;;;;;9.67;98.49;100824.31;5272195;55;1136816;-85
2021/11/08 11:32:27;;;;;;;1.47;1.00;;;;;;;9.69;98.42;100820.61;5325884;54;1136828;-83
2021/11/08 11:37:33;;;;;;;2.73;1.07;;;;;;;9.74;99.24;100824.27;5331138;55;1136870;-84
2021/11/08 11:42:56;;;;;;;7.40;2.60;;;;;;;9.78;98.21;100827.89;5344481;54;1136772;-84
2021/11/08 11:48:05;;;;;;;10.60;2.10;;;;;;;9.78;97.54;100833.65;5341896;55;1136883;-84
2021/11/08 11:53:11;;;;;;;2.30;1.20;;;;;;;9.75;97.46;100833.41;5341992;55;1138945;-83
2021/11/08 11:58:20;;;;;;;1.93;1.33;;;;;;;9.68;97.60;100838.73;5334028;55;1135086;-83
2021/11/08 12:03:26;;;;;;;2.10;1.30;;;;;;;9.63;98.18;100832.91;5330892;55;1134715;-83
2021/11/08 12:08:38;;;;;;;2.77;0.93;;;;;;;9.62;97.85;100834.36;5336195;55;1134782;-83
2021/11/08 12:13:57;;;;;;;2.30;0.80;;;;;;;9.58;97.52;100834.20;5343745;54;1134750;-82
2021/11/08 12:19:04;;;;;;;4.60;1.20;;;;;;;9.59;97.92;100839.84;5346670;54;1134830;-84
2021/11/08 12:24:28;;;;;;;5.50;1.50;;;;;;;9.63;98.37;100838.19;5321823;54;1134779;-84
2021/11/08 12:29:34;;;;;;;4.75;1.65;;;;;;;9.69;97.53;100839.11;5287607;54;1134783;-83
2021/11/08 12:34:52;;;;;;;3.67;2.80;;;;;;;9.75;98.10;100837.84;5299343;54;1134768;-83
2021/11/08 12:40:03;;;;;;;3.67;2.10;;;;;;;9.79;97.99;100842.79;5339137;54;1135018;-82
2021/11/08 12:45:23;;;;;;;5.17;3.87;;;;;;;9.80;97.42;100839.67;5338145;54;1136933;-83
2021/11/08 12:50:50;;;;;;;6.27;1.30;;;;;;;9.80;97.90;100844.95;5330293;55;1136813;-82
2021/11/08 12:55:59;;;;;;;13.87;4.30;;;;;;;9.82;97.09;100845.23;5330415;55;1136986;-83
2021/11/08 13:01:07;;;;;;;2.73;1.47;;;;;;;9.86;97.54;100849.36;5333053;55;1139060;-84
2021/11/08 13:06:32;;;;;;;2.93;1.93;;;;;;;9.93;98.11;100847.11;5332569;55;1136912;-83
2021/11/08 13:11:56;;;;;;;22.87;11.30;;;;;;;10.07;97.60;100861.56;5329539;55;1136863;-83
2021/11/08 13:17:21;;;;;;;21.53;8.70;;;;;;;10.02;97.43;100864.14;5341053;55;1143131;-85
2021/11/08 13:22:31;;;;;;;17.43;7.10;;;;;;;9.94;97.68;100862.02;5202665;55;1141129;-85
2021/11/08 13:27:38;;;;;;;8.17;3.30;;;;;;;10.01;97.68;100867.26;5273014;54;1138908;-87
2021/11/08 13:32:44;;;;;;;23.20;7.43;;;;;;;9.97;97.17;100873.70;5265912;54;1138910;-85
2021/11/08 13:37:50;;;;;;;29.73;7.20;;;;;;;9.85;97.27;100882.48;5233887;55;1139252;-86
2021/11/08 13:43:07;;;;;;;23.47;6.63;;;;;;;9.85;97.27;100882.48;5281400;54;1139175;-90
2021/11/08 13:48:31;;;;;;;30.00;8.87;;;;;;;9.82;97.29;100892.77;5287573;54;1138871;-85
2021/11/08 13:53:39;;;;;;;49.90;14.28;;;;;;;9.80;97.60;100899.95;5260506;55;1139162;-83
2021/11/08 13:58:55;;;;;;;14.70;4.17;;;;;;;9.78;97.59;100895.72;5339399;54;1138923;-85
2021/11/08 14:04:01;;;;;;;24.93;7.87;;;;;;;9.73;97.31;100904.45;5329357;54;1136876;-84
2021/11/08 14:09:13;;;;;;;50.57;14.40;;;;;;;9.71;97.56;100906.34;5282147;54;1136949;-85
2021/11/08 14:14:22;;;;;;;26.87;14.50;;;;;;;9.71;97.45;100908.52;5251804;55;1139171;-85
2021/11/08 14:19:27;;;;;;;123.43;85.50;;;;;;;9.69;97.44;100910.89;5245007;55;1139266;-85
2021/11/08 14:24:39;;;;;;;95.33;30.63;;;;;;;9.64;97.17;100916.95;5247617;55;1141142;-85
2021/11/08 14:29:45;;;;;;;27.47;9.43;;;;;;;9.59;97.43;100919.07;5262106;54;1138908;-85
2021/11/08 14:35:06;;;;;;;77.73;26.63;;;;;;;9.57;97.54;100925.77;5339374;54;1136941;-85
2021/11/08 14:40:18;;;;;;;9.13;3.80;;;;;;;9.56;97.54;100931.16;5341628;54;1138985;-85
2021/11/08 14:45:28;;;;;;;19.83;5.43;;;;;;;9.52;97.57;100933.98;5317059;54;1132888;-85
2021/11/08 14:50:36;;;;;;;74.50;24.40;;;;;;;9.51;97.62;100936.25;5324646;54;1139194;-85
2021/11/08 14:55:42;;;;;;;91.85;26.10;;;;;;;9.50;97.58;100938.99;5312076;54;1140924;-84
2021/11/08 15:00:50;;;;;;;67.82;18.77;;;;;;;9.46;97.64;100942.34;5330618;54;1140914;-85
2021/11/08 15:05:56;;;;;;;19.27;6.50;;;;;;;9.44;97.62;100946.02;5268279;54;1141375;-85
2021/11/08 15:11:02;;;;;;;35.93;11.43;;;;;;;9.38;97.68;100951.22;5296287;54;1139010;-85
2021/11/08 15:16:08;;;;;;;119.13;72.73;;;;;;;9.39;97.85;100958.66;5322474;54;1141306;-85
2021/11/08 15:21:15;;;;;;;114.30;57.67;;;;;;;9.36;98.29;100971.59;5309701;54;1142983;-84
2021/11/08 15:26:21;;;;;;;22.97;12.40;;;;;;;9.30;98.74;100978.60;5318415;54;1143077;-85
2021/11/08 15:31:30;;;;;;;273.20;174.03;;;;;;;9.24;99.77;100977.67;5305793;54;1141119;-85
2021/11/08 15:36:40;;;;;;;317.67;212.13;;;;;;;9.17;99.77;100981.16;5325485;55;1145292;-85
2021/11/08 15:41:46;;;;;;;305.07;129.87;;;;;;;9.13;100.00;100986.76;5320855;55;1145331;-85
2021/11/08 15:46:54;;;;;;;225.60;93.30;;;;;;;9.07;100.00;100995.05;5345392;54;1147541;-85
2021/11/08 15:52:00;;;;;;;612.33;338.83;;;;;;;9.04;100.00;100996.09;5346337;54;1145168;-85
2021/11/08 15:57:06;;;;;;;326.63;146.43;;;;;;;9.01;100.00;101002.87;5334806;54;1147300;-85
2021/11/08 16:02:12;;;;;;;193.80;82.23;;;;;;;8.95;100.00;101005.92;5328248;54;1147173;-85
2021/11/08 16:07:18;;;;;;;282.67;128.17;;;;;;;8.92;100.00;101010.06;5347798;54;1145356;-86
2021/11/08 16:12:24;;;;;;;84.37;41.50;;;;;;;8.91;100.00;101020.23;5340842;54;1147400;-86
2021/11/08 16:17:30;;;;;;;72.60;20.60;;;;;;;8.91;100.00;101022.88;5343490;54;1143353;-86
2021/11/08 16:22:36;;;;;;;122.83;37.80;;;;;;;8.90;100.00;101025.13;5345569;54;1142988;-84
2021/11/08 16:27:43;;;;;;;14.20;5.47;;;;;;;8.89;100.00;101031.35;5338412;54;1145184;-86
2021/11/08 16:33:02;;;;;;;43.00;11.87;;;;;;;8.91;100.00;101045.30;5348263;54;1140953;-86
2021/11/08 16:38:13;;;;;;;192.33;98.10;;;;;;;8.87;100.00;101048.21;5340059;54;1143159;-86
2021/11/08 16:43:22;;;;;;;144.10;110.47;;;;;;;8.83;100.00;101062.55;5329753;54;1145130;-86
2021/11/08 16:48:32;;;;;;;168.73;54.63;;;;;;;8.79;100.00;101068.01;5333225;54;1146622;-86
2021/11/08 16:53:40;;;;;;;332.70;162.73;;;;;;;8.73;100.00;101064.89;5335779;54;1145650;-87
2021/11/08 16:58:49;;;;;;;150.40;93.33;;;;;;;8.74;100.00;101076.66;5336908;54;1147376;-86
2021/11/08 17:03:57;;;;;;;73.70;29.03;;;;;;;8.74;100.00;101084.58;5342661;54;1145229;-87
2021/11/08 17:09:36;;;;;;;104.30;53.17;;;;;;;8.74;100.00;101085.89;5334446;54;1143010;-86
2021/11/08 17:14:10;;;;;;;190.65;96.53;;;;;;;8.77;100.00;101094.09;5304129;54;1145236;-86
2021/11/08 17:19:16;;;;;;;58.90;30.70;;;;;;;8.76;100.00;101097.20;5339008;54;1145118;-85
2021/11/08 17:24:23;;;;;;;5.70;4.17;;;;;;;8.74;100.00;101103.51;5346928;54;1141603;-85
2021/11/08 17:29:29;;;;;;;156.53;43.37;;;;;;;8.75;100.00;101117.92;5340160;54;1136811;-85
2021/11/08 17:34:39;;;;;;;51.93;15.87;;;;;;;8.81;100.00;101121.52;5340698;54;1143091;-84
2021/11/08 17:39:47;;;;;;;43.67;16.97;;;;;;;8.87;100.00;101120.28;5341643;54;1140988;-86
2021/11/08 17:44:52;;;;;;;118.87;48.27;;;;;;;8.88;100.00;101118.48;5394797;54;1141132;-85
2021/11/08 17:49:57;;;;;;;104.83;36.83;;;;;;;8.92;100.00;101128.77;5410064;54;1143130;-87
2021/11/08 17:55:12;;;;;;;13.57;6.67;;;;;;;8.98;100.00;101135.47;5392479;54;1143079;-86
2021/11/08 18:00:19;;;;;;;31.30;17.23;;;;;;;8.97;100.00;101146.97;5387536;54;1138924;-87
2021/11/08 18:05:26;;;;;;;83.03;33.50;;;;;;;9.03;100.00;101154.02;5427380;54;1141269;-87
2021/11/08 18:10:32;;;;;;;81.33;34.67;;;;;;;9.08;100.00;101155.92;5429730;54;1140881;-87
2021/11/08 18:15:41;;;;;;;132.83;63.07;;;;;;;9.05;100.00;101157.42;5429474;54;1140975;-86
2021/11/08 18:31:18;;;;;;;;;;;;;;;9.01;100.00;101182.28;5400809;54;1143170;-85
2021/11/08 18:36:24;;;;;;;228.25;94.80;;;;;;;9.00;100.00;101191.17;5429029;54;976296;-87
2021/11/08 18:41:30;;;;;;;302.33;135.67;;;;;;;9.02;100.00;101195.00;5400394;54;1143075;-86
2021/11/08 18:46:36;;;;;;;416.20;187.90;;;;;;;9.05;100.00;101208.87;5345965;54;1147374;-85
2021/11/08 18:51:42;;;;;;;1196.37;577.70;;;;;;;9.06;100.00;101209.25;5347752;54;1147353;-87
2021/11/08 18:56:48;;;;;;;449.27;214.63;;;;;;;9.04;100.00;101211.12;5335166;54;1149339;-86
2021/11/08 19:02:05;;;;;;;219.47;92.27;;;;;;;9.01;100.00;101212.63;5329691;54;1147664;-85
2021/11/08 19:07:16;;;;;;;221.20;86.53;;;;;;;9.11;100.00;101216.90;5344074;54;1145211;-87
2021/11/08 19:12:11;;;;;;;110.50;47.93;;;;;;;9.12;100.00;101212.85;5344455;54;1145176;-85
2021/11/08 19:17:16;;;;;;;40.20;20.83;;;;;;;9.15;100.00;101216.63;5327545;54;1145476;-86
2021/11/08 19:22:22;;;;;;;43.00;22.10;;;;;;;9.17;100.00;101231.02;5329035;54;1143129;-75
2021/11/08 19:27:29;;;;;;;56.80;29.40;;;;;;;9.22;100.00;101236.03;5317776;54;1143064;-82
2021/11/08 19:33:07;;;;;;;69.33;33.53;;;;;;;9.17;100.00;101247.70;5300186;54;1143147;-81
2021/11/08 19:38:03;;;;;;;79.13;40.73;;;;;;;9.13;100.00;101250.17;5256391;54;1143272;-83
2021/11/08 19:43:12;;;;;;;82.13;39.07;;;;;;;9.09;100.00;101255.25;5309800;54;1143069;-77
2021/11/08 19:48:21;;;;;;;16.40;8.97;;;;;;;9.15;100.00;101267.23;5281844;54;1143096;-78
2021/11/08 19:53:29;;;;;;;7.27;4.67;;;;;;;9.03;100.00;101271.44;5289832;54;1141225;-82
2021/11/08 19:58:36;;;;;;;11.43;6.27;;;;;;;8.85;100.00;101285.73;5306943;54;1139032;-81
2021/11/08 20:03:49;;;;;;;12.27;7.10;;;;;;;8.67;100.00;101285.00;5329023;54;1141128;-79
2021/11/08 20:08:51;;;;;;;11.17;7.00;;;;;;;8.54;100.00;101298.50;5322469;54;1141398;-76
2021/11/08 20:19:19;;;;;;;;;;;;;;;8.40;100.00;101325.61;5339961;54;1139099;-79
2021/11/08 20:24:25;;;;;;;9.25;5.97;;;;;;;8.31;100.00;101333.16;5190003;55;976296;-80
2021/11/08 20:29:39;;;;;;;13.00;9.77;;;;;;;8.21;100.00;101346.00;5184925;56;1136940;-78
2021/11/08 20:40:08;;;;;;;14.17;10.00;;;;;;;8.02;100.00;101363.27;5291723;54;1138931;-81
2021/11/08 21:01:06;;;;;;;12.50;6.22;;;;;;;7.96;100.00;101403.55;5260324;54;974235;-80
2021/11/08 21:16:19;;;;;;;5.00;2.30;;;;;;;7.78;100.00;101417.70;5239793;55;1137139;-80
2021/11/08 21:21:28;;;;;;;5.93;2.63;;;;;;;7.68;100.00;101417.31;5279208;54;1136907;-79
2021/11/08 21:26:40;;;;;;;2.97;1.97;;;;;;;7.58;100.00;101426.61;5262422;54;1137064;-82
2021/11/08 21:42:32;;;;;;;;;;;;;;;7.45;100.00;101454.02;5324405;54;1139079;-79
2021/11/08 21:47:40;;;;;;;17.03;5.77;;;;;;;7.47;100.00;101465.79;5272675;54;976239;-81
2021/11/08 21:52:47;;;;;;;13.70;4.70;;;;;;;7.48;100.00;101475.39;5273725;54;1139242;-78
2021/11/08 21:57:55;;;;;;;9.87;4.27;;;;;;;7.47;100.00;101475.00;5290876;54;1141319;-80
2021/11/08 22:03:01;;;;;;;11.40;3.67;;;;;;;7.39;100.00;101484.58;5276517;54;1139023;-81
2021/11/08 22:08:08;;;;;;;15.57;4.87;;;;;;;7.32;100.00;101487.98;5333461;54;1141098;-77
2021/11/08 22:13:14;;;;;;;8.70;4.37;;;;;;;7.27;100.00;101489.98;5342244;54;1141057;-81
2021/11/08 22:18:20;;;;;;;11.33;4.92;;;;;;;7.29;100.00;101497.80;5338364;54;1138976;-80
2021/11/08 22:23:25;;;;;;;6.90;4.73;;;;;;;7.29;100.00;101499.97;5337777;54;1141088;-78
2021/11/08 22:28:32;;;;;;;9.83;4.60;;;;;;;7.31;100.00;101498.59;5324335;54;1139267;-76
2021/11/08 22:33:39;;;;;;;8.97;4.60;;;;;;;7.40;100.00;101506.88;5344123;54;1138935;-83
2021/11/08 22:38:48;;;;;;;12.57;6.57;;;;;;;7.34;100.00;101515.05;5332561;54;1138991;-80
2021/11/08 22:43:54;;;;;;;9.23;5.23;;;;;;;7.29;100.00;101515.77;5375313;54;1141152;-82
2021/11/08 22:49:00;;;;;;;12.47;5.50;;;;;;;7.19;100.00;101519.73;5421498;54;1139220;-79
2021/11/08 22:54:06;;;;;;;12.43;6.30;;;;;;;7.14;100.00;101530.96;5402471;54;1141015;-78
2021/11/08 22:59:12;;;;;;;9.15;6.47;;;;;;;7.15;100.00;101531.81;5415308;54;1141068;-82
2021/11/08 23:04:18;;;;;;;14.13;6.80;;;;;;;7.15;100.00;101552.86;5399302;54;1139037;-81
2021/11/08 23:09:23;;;;;;;26.13;11.17;;;;;;;7.09;100.00;101564.52;5396199;54;1141185;-78
2021/11/08 23:14:29;;;;;;;22.57;10.63;;;;;;;7.13;100.00;101564.77;5429709;54;1143703;-81
2021/11/08 23:19:35;;;;;;;12.43;6.60;;;;;;;7.15;100.00;101562.92;5422652;54;1143178;-84
2021/11/08 23:24:41;;;;;;;14.67;6.57;;;;;;;7.21;100.00;101573.60;5428834;54;1141024;-79
2021/11/08 23:29:46;;;;;;;16.97;9.87;;;;;;;7.20;100.00;101574.52;5410864;54;1141421;-79
2021/11/08 23:34:53;;;;;;;20.35;12.10;;;;;;;7.18;100.00;101572.45;5411215;54;1141060;-81
2021/11/08 23:39:59;;;;;;;18.43;10.03;;;;;;;7.14;100.00;101586.67;5404639;54;1141090;-82
2021/11/08 23:45:08;;;;;;;15.37;5.27;;;;;;;7.13;100.00;101579.70;5344016;54;1144150;-77
2021/11/08 23:50:14;;;;;;;9.30;5.70;;;;;;;7.12;100.00;101588.05;5335498;54;1141289;-78
2021/11/08 23:55:24;;;;;;;8.27;5.07;;;;;;;7.06;100.00;101582.59;5335724;54;1139199;-82
